createdAt,value
2022-11-12T00:02:21.694Z,8.82
2022-11-12T00:04:48.337Z,8.78
2022-11-12T00:07:15.083Z,8.54
2022-11-12T00:09:41.781Z,8.65
2022-11-12T00:12:08.465Z,8.60
2022-11-12T00:14:35.142Z,8.39
2022-11-12T00:17:01.796Z,8.32
2022-11-12T00:19:28.475Z,8.42
2022-11-12T00:21:55.127Z,8.46
2022-11-12T00:24:21.794Z,8.42
2022-11-12T00:26:48.631Z,8.74
2022-11-12T00:29:15.321Z,8.49
2022-11-12T00:31:41.981Z,8.25
2022-11-12T00:34:08.629Z,7.76
2022-11-12T00:36:35.299Z,8.25
2022-11-12T00:41:46.237Z,7.78
2022-11-12T00:44:12.896Z,7.46
2022-11-12T00:46:39.591Z,7.69
2022-11-12T00:49:06.240Z,7.70
2022-11-12T00:51:32.913Z,8.41
2022-11-12T00:53:59.592Z,8.46
2022-11-12T00:56:26.221Z,8.14
2022-11-12T00:58:52.856Z,8.09
2022-11-12T01:01:19.491Z,8.52
2022-11-12T01:03:46.170Z,8.00
2022-11-12T01:06:12.836Z,8.75
2022-11-12T01:08:39.777Z,8.89
2022-11-12T01:11:06.429Z,8.86
2022-11-12T01:13:33.133Z,8.77
2022-11-12T01:15:59.795Z,8.77
2022-11-12T01:18:26.689Z,8.46
2022-11-12T01:20:53.745Z,8.22
2022-11-12T01:23:20.392Z,8.55
2022-11-12T01:25:47.086Z,7.88
2022-11-12T01:28:13.702Z,8.53
2022-11-12T01:30:40.414Z,8.30
2022-11-12T01:33:13.469Z,7.72
2022-11-12T01:35:40.193Z,7.56
2022-11-12T01:38:06.899Z,7.69
2022-11-12T01:40:33.577Z,7.92
2022-11-12T01:43:00.297Z,8.01
2022-11-12T01:45:26.978Z,8.14
2022-11-12T01:47:53.676Z,7.88
2022-11-12T01:50:20.358Z,8.32
2022-11-12T01:52:47.009Z,8.38
2022-11-12T01:55:13.670Z,8.49
2022-11-12T01:57:40.317Z,8.70
2022-11-12T02:00:06.997Z,8.31
2022-11-12T02:02:33.708Z,8.15
2022-11-12T02:05:00.342Z,8.48
2022-11-12T02:07:26.968Z,8.27
2022-11-12T02:09:53.582Z,8.49
2022-11-12T02:12:20.250Z,8.62
2022-11-12T02:14:46.916Z,8.77
2022-11-12T02:17:13.576Z,8.92
2022-11-12T02:19:40.230Z,8.96
2022-11-12T02:22:06.893Z,8.81
2022-11-12T02:24:33.519Z,8.78
2022-11-12T02:27:00.395Z,8.90
2022-11-12T02:29:27.012Z,8.80
2022-11-12T02:31:53.644Z,8.32
2022-11-12T02:34:20.258Z,8.59
2022-11-12T02:36:46.932Z,8.68
2022-11-12T02:39:13.589Z,8.56
2022-11-12T02:41:40.253Z,8.64
2022-11-12T02:44:06.888Z,8.56
2022-11-12T02:46:33.500Z,8.65
2022-11-12T02:49:00.162Z,8.67
2022-11-12T02:51:26.763Z,8.17
2022-11-12T02:53:53.422Z,8.31
2022-11-12T02:56:20.052Z,8.14
2022-11-12T02:58:46.699Z,8.35
2022-11-12T03:01:13.425Z,8.48
2022-11-12T03:03:40.139Z,8.37
2022-11-12T03:06:06.779Z,8.55
2022-11-12T03:08:33.636Z,8.48
2022-11-12T03:11:00.422Z,8.47
2022-11-12T03:13:27.106Z,8.60
2022-11-12T03:15:53.839Z,8.22
2022-11-12T03:18:20.583Z,8.27
2022-11-12T03:20:47.255Z,8.34
2022-11-12T03:23:13.895Z,8.37
2022-11-12T03:25:40.564Z,8.40
2022-11-12T03:28:07.227Z,8.34
2022-11-12T03:30:33.854Z,8.45
2022-11-12T03:33:00.556Z,8.57
2022-11-12T03:35:27.189Z,8.66
2022-11-12T03:37:53.867Z,8.50
2022-11-12T03:40:20.479Z,8.56
2022-11-12T03:42:47.121Z,8.28
2022-11-12T03:45:13.777Z,8.16
2022-11-12T03:47:40.445Z,8.34
2022-11-12T03:50:07.113Z,8.47
2022-11-12T03:52:33.755Z,8.49
2022-11-12T03:55:00.404Z,8.41
2022-11-12T03:57:27.116Z,8.00
2022-11-12T03:59:53.756Z,7.99
2022-11-12T04:02:20.399Z,8.24
2022-11-12T04:04:47.013Z,8.31
2022-11-12T04:07:13.681Z,8.18
2022-11-12T04:09:40.305Z,8.17
2022-11-12T04:12:06.948Z,8.05
2022-11-12T04:14:33.551Z,8.35
2022-11-12T04:17:00.255Z,8.15
2022-11-12T04:19:26.929Z,8.35
2022-11-12T04:21:53.555Z,7.98
2022-11-12T04:24:20.188Z,8.53
2022-11-12T04:26:46.821Z,8.60
2022-11-12T04:29:13.460Z,8.69
2022-11-12T04:31:40.096Z,8.70
2022-11-12T04:34:06.739Z,8.73
2022-11-12T04:36:33.370Z,8.53
2022-11-12T04:39:00.004Z,8.50
2022-11-12T04:41:26.630Z,8.73
2022-11-12T04:43:53.299Z,8.91
2022-11-12T04:46:19.914Z,8.99
2022-11-12T04:48:46.558Z,8.91
2022-11-12T04:51:13.204Z,8.91
2022-11-12T04:53:39.850Z,8.98
2022-11-12T04:56:06.462Z,8.84
2022-11-12T04:58:33.099Z,9.00
2022-11-12T05:00:59.759Z,9.12
2022-11-12T05:03:26.657Z,9.24
2022-11-12T05:05:53.329Z,9.50
2022-11-12T05:08:19.998Z,9.38
2022-11-12T05:10:46.654Z,8.99
2022-11-12T05:13:13.289Z,9.12
2022-11-12T05:15:39.993Z,9.10
2022-11-12T05:18:06.658Z,9.06
2022-11-12T05:20:33.305Z,9.11
2022-11-12T05:23:06.793Z,9.24
2022-11-12T05:25:33.685Z,9.14
2022-11-12T05:28:00.350Z,9.37
2022-11-12T05:30:26.979Z,9.64
2022-11-12T05:32:53.652Z,9.73
2022-11-12T05:35:20.303Z,9.35
2022-11-12T05:37:46.920Z,8.92
2022-11-12T05:40:13.555Z,8.94
2022-11-12T05:42:40.200Z,9.35
2022-11-12T05:45:06.853Z,9.50
2022-11-12T05:47:33.482Z,9.68
2022-11-12T05:50:00.149Z,9.81
2022-11-12T05:52:29.073Z,9.60
2022-11-12T05:54:55.724Z,9.70
2022-11-12T05:57:22.388Z,9.67
2022-11-12T05:59:49.093Z,9.70
2022-11-12T06:02:15.761Z,9.52
2022-11-12T06:04:42.391Z,9.62
2022-11-12T06:07:09.032Z,9.62
2022-11-12T06:09:35.705Z,9.69
2022-11-12T06:12:02.379Z,9.36
2022-11-12T06:14:29.006Z,9.59
2022-11-12T06:16:55.625Z,9.59
2022-11-12T06:19:22.305Z,9.18
2022-11-12T06:21:48.927Z,9.32
2022-11-12T06:24:15.748Z,9.48
2022-11-12T06:26:42.389Z,9.78
2022-11-12T06:29:09.025Z,9.94
2022-11-12T06:31:35.686Z,10.24
2022-11-12T06:34:02.313Z,10.27
2022-11-12T06:36:28.960Z,10.27
2022-11-12T06:38:55.620Z,10.18
2022-11-12T06:41:22.462Z,10.54
2022-11-12T06:43:49.197Z,10.69
2022-11-12T06:46:15.863Z,10.75
2022-11-12T06:48:42.558Z,10.67
2022-11-12T06:51:09.268Z,10.58
2022-11-12T06:53:35.907Z,10.59
2022-11-12T06:56:02.566Z,10.67
2022-11-12T06:58:29.355Z,11.06
2022-11-12T07:00:56.172Z,10.66
2022-11-12T07:03:22.833Z,10.96
2022-11-12T07:05:49.467Z,10.87
2022-11-12T07:08:16.111Z,10.82
2022-11-12T07:10:42.788Z,10.95
2022-11-12T07:13:09.445Z,11.08
2022-11-12T07:15:36.142Z,11.10
2022-11-12T07:18:02.775Z,11.25
2022-11-12T07:20:29.565Z,11.32
2022-11-12T07:22:56.251Z,11.65
2022-11-12T07:25:22.889Z,11.65
2022-11-12T07:27:49.525Z,11.87
2022-11-12T07:30:16.170Z,12.08
2022-11-12T07:32:46.130Z,11.97
2022-11-12T07:35:15.008Z,11.53
2022-11-12T07:37:41.662Z,12.02
2022-11-12T07:40:08.300Z,11.94
2022-11-12T07:42:34.917Z,12.31
2022-11-12T07:45:01.545Z,12.45
2022-11-12T07:47:28.177Z,12.37
2022-11-12T07:49:54.839Z,12.28
2022-11-12T07:52:21.479Z,12.36
2022-11-12T07:54:48.127Z,12.52
2022-11-12T07:57:14.763Z,12.52
2022-11-12T07:59:45.927Z,12.67
2022-11-12T08:02:13.058Z,12.37
2022-11-12T08:04:39.675Z,12.63
2022-11-12T08:07:06.500Z,12.48
2022-11-12T08:09:33.258Z,12.96
2022-11-12T08:11:59.897Z,13.07
2022-11-12T08:14:26.537Z,13.19
2022-11-12T08:16:53.275Z,13.10
2022-11-12T08:19:19.955Z,13.02
2022-11-12T08:21:46.620Z,13.45
2022-11-12T08:24:13.264Z,13.47
2022-11-12T08:26:39.926Z,13.56
2022-11-12T08:29:08.699Z,13.79
2022-11-12T08:31:35.722Z,14.12
2022-11-12T08:34:02.365Z,14.37
2022-11-12T08:36:29.002Z,14.48
2022-11-12T08:38:55.662Z,14.50
2022-11-12T08:41:22.290Z,14.78
2022-11-12T08:43:48.935Z,15.03
2022-11-12T08:46:15.652Z,15.21
2022-11-12T08:48:42.301Z,15.44
2022-11-12T08:51:08.953Z,15.72
2022-11-12T08:53:35.609Z,15.53
2022-11-12T08:56:02.278Z,15.86
2022-11-12T08:58:29.198Z,16.05
2022-11-12T09:00:56.113Z,16.16
2022-11-12T09:03:22.745Z,16.39
2022-11-12T09:05:49.601Z,16.43
2022-11-12T09:08:16.411Z,16.11
2022-11-12T09:10:44.082Z,16.20
2022-11-12T09:13:11.368Z,16.55
2022-11-12T09:15:38.869Z,16.79
2022-11-12T09:18:05.922Z,16.49
2022-11-12T09:20:37.260Z,16.50
2022-11-12T09:23:04.953Z,16.48
2022-11-12T09:25:31.812Z,16.49
2022-11-12T09:27:58.498Z,16.62
2022-11-12T09:30:25.162Z,16.77
2022-11-12T09:32:51.846Z,17.00
2022-11-12T09:35:18.518Z,16.52
2022-11-12T09:37:45.180Z,16.65
2022-11-12T09:40:11.835Z,17.30
2022-11-12T09:42:38.484Z,17.56
2022-11-12T09:45:05.196Z,17.95
2022-11-12T09:47:31.840Z,17.74
2022-11-12T09:49:58.520Z,17.81
2022-11-12T09:52:25.133Z,18.02
2022-11-12T09:54:51.783Z,18.11
2022-11-12T09:57:18.492Z,18.18
2022-11-12T09:59:45.196Z,18.63
2022-11-12T10:02:11.904Z,18.95
2022-11-12T10:04:38.575Z,19.00
2022-11-12T10:07:05.354Z,19.15
2022-11-12T10:09:32.077Z,19.41
2022-11-12T10:12:03.877Z,19.70
2022-11-12T10:14:30.795Z,19.85
2022-11-12T10:16:57.435Z,19.40
2022-11-12T10:19:24.100Z,18.93
2022-11-12T10:21:50.734Z,18.62
2022-11-12T10:24:17.397Z,18.83
2022-11-12T10:26:44.039Z,18.66
2022-11-12T10:29:10.690Z,18.53
2022-11-12T10:31:37.346Z,18.65
2022-11-12T10:34:04.019Z,18.66
2022-11-12T10:36:30.697Z,18.75
2022-11-12T10:38:57.361Z,18.82
2022-11-12T10:41:24.019Z,19.18
2022-11-12T10:43:50.651Z,19.81
2022-11-12T10:46:17.296Z,20.22
2022-11-12T10:48:43.959Z,20.52
2022-11-12T10:51:10.589Z,20.89
2022-11-12T10:53:37.227Z,20.77
2022-11-12T10:56:03.838Z,20.50
2022-11-12T10:58:30.552Z,20.20
2022-11-12T11:00:57.260Z,19.71
2022-11-12T11:03:23.950Z,18.27
2022-11-12T11:05:50.646Z,17.84
2022-11-12T11:08:17.315Z,18.17
2022-11-12T11:10:43.984Z,17.97
2022-11-12T11:13:10.678Z,18.47
2022-11-12T11:15:37.343Z,18.66
2022-11-12T11:18:04.013Z,19.07
2022-11-12T11:20:30.675Z,18.01
2022-11-12T11:22:57.350Z,18.00
2022-11-12T11:25:23.986Z,18.48
2022-11-12T11:27:50.663Z,18.58
2022-11-12T11:30:17.325Z,18.63
2022-11-12T11:32:44.041Z,18.79
2022-11-12T11:35:10.762Z,18.49
2022-11-12T11:37:37.477Z,18.64
2022-11-12T11:40:04.134Z,19.00
2022-11-12T11:42:30.854Z,19.02
2022-11-12T11:44:57.468Z,19.16
2022-11-12T11:47:30.428Z,19.22
2022-11-12T11:50:00.884Z,19.40
2022-11-12T11:52:27.539Z,19.47
2022-11-12T11:54:54.167Z,19.51
2022-11-12T11:57:20.847Z,19.55
2022-11-12T11:59:47.492Z,19.55
2022-11-12T12:02:14.148Z,19.63
2022-11-12T12:04:40.802Z,19.65
2022-11-12T12:07:07.503Z,19.50
2022-11-12T12:09:34.267Z,19.59
2022-11-12T12:12:00.884Z,19.25
2022-11-12T12:14:27.541Z,19.32
2022-11-12T12:16:54.177Z,19.47
2022-11-12T12:19:21.872Z,18.78
2022-11-12T12:21:48.574Z,18.50
2022-11-12T12:24:15.230Z,18.76
2022-11-12T12:26:41.853Z,19.22
2022-11-12T12:29:08.489Z,19.61
2022-11-12T12:31:35.194Z,19.46
2022-11-12T12:34:01.842Z,19.42
2022-11-12T12:36:28.548Z,19.72
2022-11-12T12:38:55.196Z,19.84
2022-11-12T12:41:21.833Z,19.95
2022-11-12T12:43:48.472Z,19.93
2022-11-12T12:46:15.094Z,19.88
2022-11-12T12:48:41.741Z,20.02
2022-11-12T12:51:08.409Z,20.12
2022-11-12T12:53:35.032Z,20.19
2022-11-12T12:56:01.698Z,19.88
2022-11-12T12:58:28.760Z,19.80
2022-11-12T13:00:55.740Z,20.11
2022-11-12T13:03:22.483Z,20.45
2022-11-12T13:05:49.164Z,20.65
2022-11-12T13:08:16.002Z,20.89
2022-11-12T13:10:42.643Z,21.12
2022-11-12T13:13:09.260Z,21.18
2022-11-12T13:15:35.906Z,21.48
2022-11-12T13:18:02.587Z,21.64
2022-11-12T13:20:29.207Z,21.83
2022-11-12T13:22:55.833Z,21.79
2022-11-12T13:25:22.514Z,21.51
2022-11-12T13:27:49.154Z,21.44
2022-11-12T13:30:16.034Z,21.29
2022-11-12T13:32:42.676Z,21.12
2022-11-12T13:35:09.373Z,20.98
2022-11-12T13:37:36.053Z,20.97
2022-11-12T13:40:02.724Z,21.11
2022-11-12T13:42:29.344Z,20.99
2022-11-12T13:44:56.874Z,20.82
2022-11-12T13:47:23.512Z,20.73
2022-11-12T13:49:50.169Z,20.68
2022-11-12T13:52:16.833Z,20.73
2022-11-12T13:54:43.498Z,20.48
2022-11-12T13:57:14.163Z,20.25
2022-11-12T13:59:41.132Z,20.06
2022-11-12T14:02:07.784Z,19.44
2022-11-12T14:04:34.451Z,19.29
2022-11-12T14:07:01.143Z,19.67
2022-11-12T14:09:27.803Z,19.76
2022-11-12T14:11:54.465Z,19.47
2022-11-12T14:14:21.151Z,19.34
2022-11-12T14:16:47.808Z,19.21
2022-11-12T14:19:14.489Z,19.30
2022-11-12T14:21:41.149Z,19.41
2022-11-12T14:24:07.772Z,19.54
2022-11-12T14:26:34.409Z,19.47
2022-11-12T14:29:01.081Z,19.48
2022-11-12T14:31:27.701Z,19.39
2022-11-12T14:33:54.354Z,19.40
2022-11-12T14:36:20.998Z,19.29
2022-11-12T14:38:47.630Z,19.28
2022-11-12T14:41:14.247Z,19.23
2022-11-12T14:43:40.889Z,19.18
2022-11-12T14:46:07.536Z,19.22
2022-11-12T14:48:34.204Z,19.04
2022-11-12T14:51:00.867Z,18.90
2022-11-12T14:53:28.258Z,18.85
2022-11-12T14:55:55.207Z,18.73
2022-11-12T14:58:21.851Z,18.57
2022-11-12T15:00:48.532Z,18.32
2022-11-12T15:03:15.316Z,18.09
2022-11-12T15:05:42.038Z,17.88
2022-11-12T15:08:08.679Z,17.74
2022-11-12T15:10:35.357Z,17.66
2022-11-12T15:13:01.989Z,17.43
2022-11-12T15:15:28.776Z,17.22
2022-11-12T15:17:55.428Z,17.00
2022-11-12T15:20:22.031Z,16.86
2022-11-12T15:22:48.654Z,16.78
2022-11-12T15:25:15.319Z,16.75
2022-11-12T15:27:41.974Z,16.57
2022-11-12T15:30:08.603Z,16.41
2022-11-12T15:32:35.235Z,16.38
2022-11-12T15:35:01.887Z,16.29
2022-11-12T15:37:28.501Z,16.18
2022-11-12T15:39:55.179Z,16.03
2022-11-12T15:45:06.081Z,15.75
2022-11-12T15:47:32.757Z,15.76
2022-11-12T15:49:59.411Z,15.55
2022-11-12T15:52:26.087Z,15.47
2022-11-12T15:54:52.742Z,15.33
2022-11-12T15:57:19.417Z,15.27
2022-11-12T15:59:46.084Z,15.23
2022-11-12T16:02:12.702Z,15.20
2022-11-12T16:04:39.350Z,15.06
2022-11-12T16:07:06.048Z,14.91
2022-11-12T16:09:32.777Z,14.88
2022-11-12T16:11:59.402Z,14.76
2022-11-12T16:14:26.027Z,14.74
2022-11-12T16:16:52.639Z,14.67
2022-11-12T16:19:19.262Z,14.59
2022-11-12T16:21:46.930Z,14.54
2022-11-12T16:24:13.568Z,14.45
2022-11-12T16:26:40.226Z,14.39
2022-11-12T16:29:06.861Z,14.30
2022-11-12T16:31:33.517Z,14.38
2022-11-12T16:34:00.193Z,14.33
2022-11-12T16:36:26.847Z,14.29
2022-11-12T16:38:53.490Z,13.99
2022-11-12T16:41:20.130Z,13.92
2022-11-12T16:43:46.835Z,13.92
2022-11-12T16:46:13.467Z,13.75
2022-11-12T16:48:40.109Z,13.71
2022-11-12T16:51:06.744Z,13.80
2022-11-12T16:53:33.399Z,13.71
2022-11-12T16:56:00.070Z,13.68
2022-11-12T16:58:26.745Z,13.57
2022-11-12T17:00:53.472Z,13.56
2022-11-12T17:03:20.217Z,13.50
2022-11-12T17:05:46.883Z,13.40
2022-11-12T17:08:13.507Z,13.28
2022-11-12T17:10:40.134Z,13.20
2022-11-12T17:13:06.800Z,13.24
2022-11-12T17:15:33.477Z,13.13
2022-11-12T17:18:00.101Z,13.12
2022-11-12T17:20:26.743Z,13.11
2022-11-12T17:22:53.371Z,13.09
2022-11-12T17:25:20.011Z,13.18
2022-11-12T17:27:46.654Z,13.10
2022-11-12T17:30:13.324Z,13.05
2022-11-12T17:32:39.984Z,13.02
2022-11-12T17:35:06.830Z,12.97
2022-11-12T17:37:33.513Z,12.88
2022-11-12T17:40:00.247Z,12.89
2022-11-12T17:42:26.895Z,12.79
2022-11-12T17:44:53.563Z,12.54
2022-11-12T17:47:20.192Z,12.45
2022-11-12T17:49:46.845Z,12.52
2022-11-12T17:52:13.469Z,12.61
2022-11-12T17:54:40.114Z,12.51
2022-11-12T17:57:06.767Z,12.51
2022-11-12T17:59:33.429Z,12.52
2022-11-12T18:02:00.108Z,12.45
2022-11-12T18:04:30.745Z,12.51
2022-11-12T18:06:57.871Z,12.53
2022-11-12T18:09:24.559Z,12.51
2022-11-12T18:11:51.194Z,12.43
2022-11-12T18:14:17.864Z,12.41
2022-11-12T18:16:44.543Z,12.39
2022-11-12T18:19:11.285Z,12.27
2022-11-12T18:21:38.057Z,12.25
2022-11-12T18:24:04.690Z,12.20
2022-11-12T18:26:31.331Z,12.20
2022-11-12T18:28:57.975Z,12.13
2022-11-12T18:31:24.590Z,12.17
2022-11-12T18:33:51.762Z,12.16
2022-11-12T18:36:18.524Z,12.10
2022-11-12T18:38:45.155Z,12.12
2022-11-12T18:41:11.885Z,12.15
2022-11-12T18:43:38.665Z,12.13
2022-11-12T18:46:05.313Z,12.13
2022-11-12T18:48:31.933Z,12.18
2022-11-12T18:50:58.564Z,12.07
2022-11-12T18:53:25.645Z,11.85
2022-11-12T18:55:52.568Z,11.93
2022-11-12T18:58:19.188Z,11.93
2022-11-12T19:00:45.886Z,12.05
2022-11-12T19:03:12.634Z,12.13
2022-11-12T19:05:39.295Z,12.10
2022-11-12T19:08:06.062Z,12.06
2022-11-12T19:10:32.704Z,12.08
2022-11-12T19:12:59.367Z,12.05
2022-11-12T19:15:27.098Z,12.06
2022-11-12T19:17:53.962Z,12.08
2022-11-12T19:20:22.077Z,11.60
2022-11-12T19:22:48.719Z,11.30
2022-11-12T19:25:15.383Z,11.66
2022-11-12T19:27:42.101Z,11.62
2022-11-12T19:30:08.755Z,11.72
2022-11-12T19:32:35.406Z,11.88
2022-11-12T19:35:02.118Z,11.97
2022-11-12T19:37:36.027Z,11.96
2022-11-12T19:40:02.716Z,11.93
2022-11-12T19:42:29.435Z,11.93
2022-11-12T19:44:56.117Z,11.92
2022-11-12T19:47:22.846Z,12.00
2022-11-12T19:49:49.483Z,12.06
2022-11-12T19:52:16.301Z,12.09
2022-11-12T19:54:42.993Z,12.04
2022-11-12T19:57:09.634Z,11.50
2022-11-12T19:59:36.342Z,11.66
2022-11-12T20:02:02.981Z,11.89
2022-11-12T20:04:29.648Z,11.97
2022-11-12T20:06:56.314Z,12.06
2022-11-12T20:09:23.015Z,11.94
2022-11-12T20:11:49.687Z,11.96
2022-11-12T20:14:16.319Z,11.82
2022-11-12T20:16:43.006Z,11.82
2022-11-12T20:19:09.645Z,11.83
2022-11-12T20:21:36.312Z,11.63
2022-11-12T20:24:02.976Z,11.61
2022-11-12T20:26:29.646Z,11.67
2022-11-12T20:28:56.282Z,11.55
2022-11-12T20:31:23.025Z,11.61
2022-11-12T20:33:49.875Z,11.69
2022-11-12T20:36:16.645Z,11.52
2022-11-12T20:38:43.335Z,11.54
2022-11-12T20:41:10.053Z,11.57
2022-11-12T20:43:36.806Z,11.49
2022-11-12T20:46:03.709Z,11.27
2022-11-12T20:48:30.525Z,11.26
2022-11-12T20:51:22.164Z,11.42
2022-11-12T20:53:43.900Z,11.48
2022-11-12T20:56:10.569Z,11.48
2022-11-12T20:58:37.285Z,11.41
2022-11-12T21:01:03.943Z,11.43
2022-11-12T21:03:30.654Z,11.50
2022-11-12T21:05:57.344Z,11.46
2022-11-12T21:08:24.134Z,11.49
2022-11-12T21:10:50.966Z,11.44
2022-11-12T21:13:17.655Z,11.36
2022-11-12T21:15:44.290Z,11.25
2022-11-12T21:18:10.979Z,11.17
2022-11-12T21:20:37.614Z,11.24
2022-11-12T21:23:04.312Z,11.30
2022-11-12T21:25:30.974Z,11.40
2022-11-12T21:27:57.642Z,11.45
2022-11-12T21:30:24.273Z,11.63
2022-11-12T21:32:50.955Z,11.67
2022-11-12T21:35:17.603Z,11.72
2022-11-12T21:37:44.280Z,11.58
2022-11-12T21:40:10.925Z,11.59
2022-11-12T21:42:37.632Z,11.75
2022-11-12T21:45:04.344Z,11.83
2022-11-12T21:47:31.006Z,11.96
2022-11-12T21:49:57.673Z,12.00
2022-11-12T21:52:24.308Z,12.07
2022-11-12T21:54:50.943Z,12.11
2022-11-12T21:57:18.911Z,12.15
2022-11-12T21:59:45.687Z,12.10
2022-11-12T22:02:12.473Z,12.21
2022-11-12T22:04:39.216Z,12.27
2022-11-12T22:07:05.960Z,12.38
2022-11-12T22:09:32.742Z,12.34
2022-11-12T22:11:59.420Z,12.42
2022-11-12T22:14:26.092Z,12.35
2022-11-12T22:16:52.786Z,12.45
2022-11-12T22:19:19.425Z,12.45
2022-11-12T22:21:46.064Z,12.49
2022-11-12T22:24:12.713Z,12.49
2022-11-12T22:26:39.356Z,12.51
2022-11-12T22:29:05.983Z,12.62
2022-11-12T22:31:32.686Z,12.66
2022-11-12T22:33:59.307Z,12.52
2022-11-12T22:36:26.008Z,12.28
2022-11-12T22:38:52.677Z,12.33
2022-11-12T22:41:19.295Z,12.18
2022-11-12T22:43:46.025Z,12.28
2022-11-12T22:46:12.690Z,12.33
2022-11-12T22:48:39.321Z,12.31
2022-11-12T22:51:06.138Z,12.46
2022-11-12T22:53:32.851Z,12.34
2022-11-12T22:55:59.463Z,12.12
2022-11-12T22:58:26.522Z,11.89
2022-11-12T23:00:53.675Z,12.21
2022-11-12T23:03:20.323Z,12.32
2022-11-12T23:05:46.978Z,12.29
2022-11-12T23:08:13.651Z,12.53
2022-11-12T23:10:45.450Z,12.64
2022-11-12T23:13:12.515Z,12.69
2022-11-12T23:15:39.171Z,12.64
2022-11-12T23:18:05.834Z,12.77
2022-11-12T23:20:32.495Z,12.82
2022-11-12T23:22:59.157Z,12.66
2022-11-12T23:25:25.829Z,12.57
2022-11-12T23:27:52.454Z,12.66
2022-11-12T23:30:19.163Z,12.68
2022-11-12T23:32:45.987Z,12.64
2022-11-12T23:35:12.654Z,12.70
2022-11-12T23:37:39.296Z,12.77
2022-11-12T23:40:05.955Z,12.73
2022-11-12T23:42:32.677Z,12.72
2022-11-12T23:44:59.359Z,12.74
2022-11-12T23:47:25.982Z,12.74
2022-11-12T23:49:53.855Z,12.72
2022-11-12T23:52:20.603Z,12.80
2022-11-12T23:54:47.302Z,12.94
2022-11-12T23:57:13.908Z,12.94
2022-11-12T23:59:40.628Z,12.98
